Time;durP1;ratioP1;P1;durP2;ratioP2;P2;SDS_P1;SDS_P2;PMS_P1;PMS_P2;Temp;Humidity;BMP_temperature;BMP_pressure;BME280_temperature;BME280_humidity;BME280_pressure;Samples;Min_cycle;Max_cycle;Signal;HPM_P1;HPM_P2
2021/08/09 00:01:19;;;;;;;3.70;2.20;;;14.30;99.90;;;;;;5010900;28;20200;-76
2021/08/09 00:03:46;;;;;;;4.30;2.10;;;14.20;99.90;;;;;;5010980;28;20885;-75
2021/08/09 00:06:12;;;;;;;4.67;2.40;;;14.20;99.90;;;;;;5010731;28;20207;-75
2021/08/09 00:08:39;;;;;;;2.30;1.80;;;14.20;99.90;;;;;;5010615;28;20208;-75
2021/08/09 00:11:06;;;;;;;3.93;2.00;;;14.10;99.90;;;;;;5010955;28;20206;-75
2021/08/09 00:13:33;;;;;;;3.10;1.90;;;14.10;99.90;;;;;;5010367;28;20664;-75
2021/08/09 00:16:00;;;;;;;3.13;2.23;;;14.10;99.90;;;;;;5011122;28;20294;-75
2021/08/09 00:18:28;;;;;;;3.07;2.43;;;14.10;99.90;;;;;;5010597;28;20223;-75
2021/08/09 00:20:57;;;;;;;5.30;2.17;;;14.10;99.90;;;;;;5010218;28;20208;-75
2021/08/09 00:23:24;;;;;;;6.07;2.13;;;14.10;99.90;;;;;;5009144;28;20205;-75
2021/08/09 00:25:50;;;;;;;4.87;2.10;;;14.20;99.90;;;;;;5013823;28;20555;-74
2021/08/09 00:28:17;;;;;;;5.33;2.60;;;14.20;99.90;;;;;;5015117;28;20203;-75
2021/08/09 00:30:44;;;;;;;3.47;2.10;;;14.30;99.90;;;;;;5013700;28;20443;-75
2021/08/09 00:33:11;;;;;;;3.13;2.20;;;14.30;99.90;;;;;;5014447;28;20212;-75
2021/08/09 00:35:39;;;;;;;2.70;2.30;;;14.30;99.90;;;;;;5013531;28;20196;-75
2021/08/09 00:38:06;;;;;;;2.20;2.00;;;14.30;99.90;;;;;;5014209;28;20206;-75
2021/08/09 00:40:33;;;;;;;3.40;2.20;;;14.30;99.90;;;;;;5013013;28;20232;-75
2021/08/09 00:43:00;;;;;;;2.30;2.10;;;14.20;99.90;;;;;;5013679;28;20200;-75
2021/08/09 00:45:28;;;;;;;3.33;2.23;;;14.20;99.90;;;;;;5013822;28;20289;-75
2021/08/09 00:47:54;;;;;;;3.10;1.90;;;14.30;99.90;;;;;;5014511;28;20207;-76
2021/08/09 00:50:21;;;;;;;3.70;2.33;;;14.40;99.90;;;;;;5013739;28;20201;-75
2021/08/09 00:52:50;;;;;;;4.27;2.30;;;14.40;99.90;;;;;;5014813;28;20200;-75
2021/08/09 00:55:19;;;;;;;5.20;2.27;;;14.40;99.90;;;;;;5012848;28;20204;-75
2021/08/09 00:57:46;;;;;;;4.47;2.53;;;14.50;99.90;;;;;;5013799;28;20196;-75
2021/08/09 01:00:13;;;;;;;7.47;2.57;;;14.60;99.90;;;;;;5012909;28;20467;-75
2021/08/09 01:02:40;;;;;;;2.83;2.07;;;14.60;99.90;;;;;;5014483;28;20288;-74
2021/08/09 01:05:10;;;;;;;3.90;2.10;;;14.60;99.90;;;;;;5012571;28;20623;-71
2021/08/09 01:07:48;;;;;;;4.03;2.20;;;14.60;99.90;;;;;;5014416;28;20207;-71
2021/08/09 01:10:24;;;;;;;4.77;2.10;;;14.60;99.90;;;;;;5012343;28;20199;-71
2021/08/09 01:13:01;;;;;;;4.53;1.90;;;14.70;99.90;;;;;;5013934;28;20559;-71
2021/08/09 01:15:31;;;;;;;2.73;2.00;;;14.70;99.90;;;;;;5009433;28;20204;-71
2021/08/09 01:18:02;;;;;;;4.30;2.50;;;14.70;99.90;;;;;;5013743;28;20216;-71
2021/08/09 01:20:47;;;;;;;4.93;1.97;;;14.60;99.90;;;;;;4998667;28;20219;-71
2021/08/09 01:23:25;;;;;;;3.10;2.40;;;14.40;99.90;;;;;;5013039;28;20200;-71
2021/08/09 01:25:57;;;;;;;6.03;2.30;;;14.30;99.90;;;;;;5007363;28;20647;-71
2021/08/09 01:28:29;;;;;;;2.13;1.87;;;14.30;99.90;;;;;;4996804;28;20209;-71
2021/08/09 01:30:59;;;;;;;3.07;2.20;;;14.20;99.90;;;;;;5012936;28;20618;-71
2021/08/09 01:33:28;;;;;;;5.53;2.30;;;14.20;99.90;;;;;;5012283;28;20214;-71
2021/08/09 01:35:57;;;;;;;4.30;2.60;;;14.20;99.90;;;;;;5012705;28;20211;-71
2021/08/09 01:38:26;;;;;;;3.67;2.33;;;14.20;99.90;;;;;;5016332;28;20215;-71
2021/08/09 01:40:56;;;;;;;3.77;2.30;;;14.10;99.90;;;;;;5015751;28;20231;-71
2021/08/09 01:43:24;;;;;;;6.30;2.57;;;14.00;99.90;;;;;;5000092;28;20211;-71
2021/08/09 01:45:54;;;;;;;6.07;2.37;;;14.00;99.90;;;;;;5012972;28;20200;-71
2021/08/09 01:48:20;;;;;;;6.13;2.77;;;13.90;99.90;;;;;;5017382;28;20192;-71
2021/08/09 01:50:48;;;;;;;2.47;2.10;;;13.90;99.90;;;;;;5012336;28;20192;-71
2021/08/09 01:53:16;;;;;;;4.73;2.30;;;13.90;99.90;;;;;;5013285;28;20207;-71
2021/08/09 01:55:43;;;;;;;3.37;2.20;;;14.00;99.90;;;;;;5015609;28;20680;-71
2021/08/09 01:58:10;;;;;;;3.73;2.33;;;14.00;99.90;;;;;;5012667;28;20200;-71
2021/08/09 02:00:37;;;;;;;2.30;2.10;;;13.90;99.90;;;;;;5012465;28;20227;-71
2021/08/09 02:03:06;;;;;;;2.97;2.20;;;13.90;99.90;;;;;;5013272;28;20483;-71
2021/08/09 02:05:32;;;;;;;4.30;2.37;;;14.00;99.90;;;;;;5011263;28;20211;-71
2021/08/09 02:08:00;;;;;;;4.67;2.43;;;13.90;99.90;;;;;;5012786;28;20192;-71
2021/08/09 02:10:29;;;;;;;3.27;2.43;;;13.90;99.90;;;;;;5011822;28;20547;-71
2021/08/09 02:13:01;;;;;;;4.07;2.77;;;13.80;99.90;;;;;;5015961;28;20206;-71
2021/08/09 02:15:39;;;;;;;6.63;2.33;;;13.70;99.90;;;;;;5009003;28;20210;-71
2021/08/09 02:18:18;;;;;;;3.37;2.10;;;13.70;99.90;;;;;;5009137;28;20196;-71
2021/08/09 02:20:46;;;;;;;5.03;2.73;;;13.70;99.90;;;;;;5009673;28;20575;-73
2021/08/09 02:23:18;;;;;;;3.17;2.30;;;13.70;99.90;;;;;;5002510;28;20207;-73
2021/08/09 02:25:49;;;;;;;3.47;2.07;;;13.70;99.90;;;;;;5005448;28;20650;-72
2021/08/09 02:28:19;;;;;;;3.53;2.27;;;13.60;99.90;;;;;;4997240;28;20202;-75
2021/08/09 02:30:50;;;;;;;2.93;2.60;;;13.60;99.90;;;;;;5005418;28;20299;-75
2021/08/09 02:33:20;;;;;;;4.90;3.30;;;13.60;99.90;;;;;;5003895;28;20216;-76
2021/08/09 02:35:48;;;;;;;5.43;3.43;;;13.60;99.90;;;;;;5004798;28;20219;-75
2021/08/09 02:38:16;;;;;;;5.63;3.73;;;13.60;99.90;;;;;;5009034;28;20201;-75
2021/08/09 02:40:43;;;;;;;4.87;3.43;;;13.60;99.90;;;;;;5010163;28;20234;-75
2021/08/09 02:43:11;;;;;;;5.20;3.40;;;13.70;99.90;;;;;;4997481;28;20208;-75
2021/08/09 02:45:39;;;;;;;6.17;3.20;;;13.70;99.90;;;;;;5009627;28;20212;-76
2021/08/09 02:48:07;;;;;;;6.10;2.83;;;13.80;99.90;;;;;;5023961;28;20204;-76
2021/08/09 02:50:36;;;;;;;5.97;2.53;;;13.80;99.90;;;;;;5009302;28;20200;-75
2021/08/09 02:53:03;;;;;;;3.73;2.50;;;13.70;99.90;;;;;;5011228;28;20204;-76
2021/08/09 02:55:31;;;;;;;4.43;3.00;;;13.70;99.90;;;;;;5010174;28;20678;-75
2021/08/09 02:58:06;;;;;;;5.17;2.57;;;13.70;99.90;;;;;;4999239;28;20208;-75
2021/08/09 03:00:33;;;;;;;3.73;2.30;;;13.70;99.90;;;;;;5011141;28;20266;-75
2021/08/09 03:03:00;;;;;;;5.57;2.77;;;13.70;99.90;;;;;;5011174;28;20540;-75
2021/08/09 03:05:30;;;;;;;5.13;2.63;;;13.70;99.90;;;;;;5010557;28;20208;-76
2021/08/09 03:07:58;;;;;;;5.30;2.60;;;13.70;99.90;;;;;;5012029;28;20193;-75
2021/08/09 03:10:26;;;;;;;3.87;2.37;;;13.70;99.90;;;;;;5012200;28;20218;-75
2021/08/09 03:12:57;;;;;;;4.33;2.87;;;13.60;99.90;;;;;;5011732;28;20196;-75
2021/08/09 03:15:24;;;;;;;2.80;2.60;;;13.50;99.90;;;;;;5010415;28;20208;-75
2021/08/09 03:17:52;;;;;;;3.93;2.50;;;13.50;99.90;;;;;;5010634;28;20208;-75
2021/08/09 03:20:19;;;;;;;3.63;2.60;;;13.60;99.90;;;;;;5011155;28;20227;-75
2021/08/09 03:22:47;;;;;;;2.77;2.40;;;13.50;99.90;;;;;;5007034;28;20200;-75
2021/08/09 03:25:15;;;;;;;5.47;2.63;;;13.60;99.90;;;;;;5010723;28;20210;-75
2021/08/09 03:27:42;;;;;;;4.47;2.50;;;13.50;99.90;;;;;;5010298;28;20227;-75
2021/08/09 03:30:10;;;;;;;4.43;2.77;;;13.60;99.90;;;;;;5010860;28;20226;-75
2021/08/09 03:32:36;;;;;;;4.23;2.60;;;13.50;99.90;;;;;;5009716;28;20215;-75
2021/08/09 03:35:04;;;;;;;3.53;2.70;;;13.50;99.90;;;;;;5003341;28;20196;-76
2021/08/09 03:37:30;;;;;;;4.90;2.60;;;13.50;99.90;;;;;;5005271;28;20200;-76
2021/08/09 03:39:57;;;;;;;3.63;2.40;;;13.50;99.90;;;;;;5006552;28;20321;-76
2021/08/09 03:42:26;;;;;;;6.63;3.00;;;13.50;99.90;;;;;;5008230;28;20671;-75
2021/08/09 03:44:53;;;;;;;3.57;2.63;;;13.50;99.90;;;;;;5009603;28;20205;-75
2021/08/09 03:47:20;;;;;;;6.27;2.90;;;13.40;99.90;;;;;;5010344;28;20200;-75
2021/08/09 03:49:47;;;;;;;6.30;2.87;;;13.50;99.90;;;;;;5009869;28;20568;-75
2021/08/09 03:52:14;;;;;;;4.37;2.40;;;13.50;99.90;;;;;;5011907;28;20653;-76
2021/08/09 03:54:41;;;;;;;3.83;2.53;;;13.40;99.90;;;;;;5010148;28;20555;-76
2021/08/09 03:57:07;;;;;;;4.07;2.20;;;13.40;99.90;;;;;;5011495;28;20568;-76
2021/08/09 03:59:36;;;;;;;7.13;2.50;;;13.40;99.90;;;;;;5014653;28;20229;-76
2021/08/09 04:02:03;;;;;;;5.83;2.43;;;13.50;99.90;;;;;;5006664;28;20208;-76
2021/08/09 04:04:30;;;;;;;4.77;2.67;;;13.40;99.90;;;;;;5006805;28;20286;-75
2021/08/09 04:06:56;;;;;;;4.73;2.60;;;13.50;99.90;;;;;;5008710;28;20694;-74
2021/08/09 04:09:23;;;;;;;4.70;2.57;;;13.50;99.90;;;;;;5010397;28;20205;-72
2021/08/09 04:11:50;;;;;;;5.10;2.77;;;13.60;99.90;;;;;;5013589;28;20201;-71
2021/08/09 04:14:17;;;;;;;6.63;2.50;;;13.80;99.90;;;;;;5013913;28;20680;-71
2021/08/09 04:16:45;;;;;;;6.20;3.23;;;13.90;99.90;;;;;;5014603;28;20234;-71
2021/08/09 04:19:12;;;;;;;3.87;2.70;;;14.00;99.90;;;;;;5011788;28;20299;-72
2021/08/09 04:21:38;;;;;;;3.20;2.53;;;13.90;99.90;;;;;;5014255;28;20220;-72
2021/08/09 04:24:05;;;;;;;4.50;2.40;;;14.00;99.90;;;;;;5012745;28;20670;-72
2021/08/09 04:26:32;;;;;;;7.63;3.20;;;14.00;99.90;;;;;;5012815;28;20287;-72
2021/08/09 04:29:00;;;;;;;3.87;2.50;;;14.10;99.90;;;;;;5011469;28;20456;-72
2021/08/09 04:31:27;;;;;;;6.87;2.50;;;14.10;99.90;;;;;;5013606;28;20659;-72
2021/08/09 04:33:55;;;;;;;2.97;2.27;;;14.10;99.90;;;;;;5014323;28;20204;-72
2021/08/09 04:36:22;;;;;;;4.90;2.80;;;14.30;99.90;;;;;;5014605;28;20230;-72
2021/08/09 04:38:48;;;;;;;5.77;2.47;;;14.30;99.90;;;;;;5013873;28;20303;-72
2021/08/09 04:41:15;;;;;;;3.90;2.47;;;14.20;99.90;;;;;;5014283;28;20232;-72
2021/08/09 04:43:42;;;;;;;5.33;2.53;;;14.10;99.90;;;;;;5013650;28;20212;-72
2021/08/09 04:46:09;;;;;;;3.23;2.50;;;14.20;99.90;;;;;;5013302;28;20210;-72
2021/08/09 04:48:37;;;;;;;4.53;2.70;;;14.40;99.90;;;;;;5015360;28;20200;-72
2021/08/09 04:51:05;;;;;;;3.47;2.37;;;14.50;99.90;;;;;;5012746;28;20219;-72
2021/08/09 04:53:32;;;;;;;10.50;6.37;;;14.50;99.90;;;;;;5013785;28;20200;-72
2021/08/09 04:55:59;;;;;;;7.17;2.90;;;14.50;99.90;;;;;;5013791;28;20212;-72
2021/08/09 04:58:26;;;;;;;7.50;3.10;;;14.50;99.90;;;;;;5013831;28;20210;-72
2021/08/09 05:00:53;;;;;;;7.93;2.70;;;14.40;99.90;;;;;;5013426;28;20224;-72
2021/08/09 05:03:20;;;;;;;4.80;2.53;;;14.50;99.90;;;;;;5013705;28;20200;-72
2021/08/09 05:05:47;;;;;;;2.60;2.20;;;14.50;99.90;;;;;;5013571;28;20211;-72
2021/08/09 05:08:16;;;;;;;3.57;2.23;;;14.40;99.90;;;;;;5013679;28;20649;-72
2021/08/09 05:10:42;;;;;;;4.63;2.23;;;14.50;99.90;;;;;;5013107;28;20231;-72
2021/08/09 05:13:09;;;;;;;6.63;2.40;;;14.50;99.90;;;;;;5013015;28;20209;-73
2021/08/09 05:15:38;;;;;;;4.63;2.60;;;14.50;99.90;;;;;;5013694;28;20580;-72
2021/08/09 05:18:05;;;;;;;5.23;2.60;;;14.60;99.90;;;;;;5013309;28;20200;-72
2021/08/09 05:20:32;;;;;;;2.77;2.30;;;14.60;99.90;;;;;;5012917;28;20682;-72
2021/08/09 05:22:59;;;;;;;4.87;2.53;;;14.70;99.90;;;;;;5013646;28;20291;-72
2021/08/09 05:25:27;;;;;;;2.23;1.90;;;14.80;99.90;;;;;;5012414;28;20295;-72
2021/08/09 05:27:54;;;;;;;4.57;2.50;;;14.90;99.90;;;;;;5013973;28;20295;-72
2021/08/09 05:30:20;;;;;;;3.53;2.20;;;15.00;99.90;;;;;;5013142;28;20208;-72
2021/08/09 05:32:47;;;;;;;5.30;2.23;;;15.10;99.90;;;;;;5013774;28;20781;-72
2021/08/09 05:35:14;;;;;;;3.30;2.30;;;15.10;99.90;;;;;;5011939;28;20223;-72
2021/08/09 05:37:41;;;;;;;3.43;2.10;;;15.10;99.90;;;;;;5011704;28;20204;-72
2021/08/09 05:40:09;;;;;;;3.73;2.20;;;15.20;99.90;;;;;;5011044;28;20230;-73
2021/08/09 05:42:38;;;;;;;4.70;2.50;;;15.30;99.90;;;;;;5012547;28;20283;-72
2021/08/09 05:45:06;;;;;;;5.63;2.53;;;15.30;99.90;;;;;;5012929;28;20205;-72
2021/08/09 05:47:33;;;;;;;6.03;2.40;;;15.40;99.90;;;;;;5017234;28;20193;-72
2021/08/09 05:49:59;;;;;;;5.10;2.20;;;15.40;99.90;;;;;;5012561;28;20543;-72
2021/08/09 05:52:27;;;;;;;5.50;2.20;;;15.40;99.90;;;;;;5011983;28;20204;-72
2021/08/09 05:54:54;;;;;;;6.00;2.30;;;15.50;99.90;;;;;;5012343;28;20295;-72
2021/08/09 05:57:21;;;;;;;2.97;2.10;;;15.60;99.90;;;;;;5013275;28;20576;-72
2021/08/09 05:59:50;;;;;;;3.10;2.10;;;15.60;99.90;;;;;;5013012;28;20213;-73
2021/08/09 06:02:17;;;;;;;3.90;2.40;;;15.60;99.90;;;;;;5012997;28;20620;-73
2021/08/09 06:04:44;;;;;;;4.03;2.80;;;15.70;99.90;;;;;;5011431;28;20267;-72
2021/08/09 06:07:14;;;;;;;3.87;2.47;;;15.80;99.90;;;;;;5013050;28;20210;-72
2021/08/09 06:09:41;;;;;;;4.43;2.30;;;15.70;99.90;;;;;;5012392;28;20215;-72
2021/08/09 06:12:08;;;;;;;3.70;2.17;;;15.80;99.90;;;;;;5012906;28;20254;-72
2021/08/09 06:14:35;;;;;;;6.53;2.60;;;15.80;99.90;;;;;;5011850;28;20674;-72
2021/08/09 06:17:04;;;;;;;6.70;2.17;;;15.80;99.90;;;;;;5012642;28;20205;-72
2021/08/09 06:19:33;;;;;;;2.83;2.13;;;15.90;99.90;;;;;;5012339;28;20205;-73
2021/08/09 06:22:00;;;;;;;5.07;2.20;;;15.90;99.90;;;;;;5008004;28;20217;-72
2021/08/09 06:24:27;;;;;;;3.17;2.40;;;16.00;99.90;;;;;;5011882;28;20222;-73
2021/08/09 06:26:54;;;;;;;5.30;2.60;;;16.20;99.90;;;;;;5065652;23;20697;-77
2021/08/09 06:29:21;;;;;;;4.25;2.10;;;16.30;99.90;;;;;;5012634;28;20203;-77
2021/08/09 06:31:48;;;;;;;3.53;2.50;;;16.20;99.90;;;;;;5012239;28;20204;-77
2021/08/09 06:34:16;;;;;;;6.70;2.70;;;16.30;99.90;;;;;;5012261;28;20626;-77
2021/08/09 06:36:43;;;;;;;6.10;2.53;;;16.30;99.90;;;;;;5011255;28;20212;-77
2021/08/09 06:39:11;;;;;;;2.37;2.13;;;16.30;99.90;;;;;;5012104;28;20200;-76
2021/08/09 06:41:38;;;;;;;2.17;1.97;;;16.30;99.90;;;;;;5012208;28;20580;-78
2021/08/09 06:44:05;;;;;;;3.23;2.30;;;16.30;99.90;;;;;;5010992;28;20576;-78
2021/08/09 06:46:32;;;;;;;2.88;2.10;;;16.30;99.90;;;;;;5013327;28;20270;-78
2021/08/09 06:48:59;;;;;;;4.33;2.33;;;16.40;99.90;;;;;;5015178;28;20261;-78
2021/08/09 06:51:27;;;;;;;3.07;2.30;;;16.20;99.90;;;;;;5011909;28;20204;-78
2021/08/09 06:53:54;;;;;;;2.88;2.28;;;16.30;99.90;;;;;;5010974;28;20211;-78
2021/08/09 06:56:21;;;;;;;3.83;2.60;;;16.30;99.90;;;;;;5011643;28;20215;-78
2021/08/09 06:58:47;;;;;;;7.30;2.47;;;16.40;99.90;;;;;;5012082;28;20306;-78
2021/08/09 07:01:14;;;;;;;6.03;2.17;;;16.40;99.90;;;;;;5012523;28;20219;-78
2021/08/09 07:03:43;;;;;;;2.53;2.20;;;16.40;99.90;;;;;;5016198;28;20205;-78
2021/08/09 07:06:17;;;;;;;5.32;2.38;;;16.50;99.90;;;;;;5007362;28;20630;-78
2021/08/09 07:08:46;;;;;;;3.07;2.23;;;16.60;99.90;;;;;;4996613;28;20265;-78
2021/08/09 07:11:13;;;;;;;3.20;2.27;;;16.60;99.90;;;;;;4994277;28;20204;-77
2021/08/09 07:13:39;;;;;;;6.67;2.77;;;16.60;99.90;;;;;;5011674;28;20439;-78
2021/08/09 07:16:06;;;;;;;3.67;2.08;;;16.70;99.90;;;;;;5011973;28;20215;-78
2021/08/09 07:18:33;;;;;;;2.67;2.10;;;16.70;99.90;;;;;;5011726;28;20643;-78
2021/08/09 07:21:00;;;;;;;2.53;1.90;;;16.80;99.90;;;;;;5011106;28;20224;-78
2021/08/09 07:23:28;;;;;;;2.88;2.08;;;16.90;99.90;;;;;;5010376;28;20208;-78
2021/08/09 07:25:56;;;;;;;3.03;2.00;;;16.90;99.90;;;;;;5009792;28;20672;-78
2021/08/09 07:28:23;;;;;;;5.70;1.80;;;17.00;99.90;;;;;;5011254;28;20205;-78
2021/08/09 07:30:49;;;;;;;3.13;2.17;;;17.00;99.90;;;;;;5009104;28;20192;-78
2021/08/09 07:33:16;;;;;;;2.63;2.03;;;17.10;99.90;;;;;;5006479;28;20655;-77
2021/08/09 07:35:43;;;;;;;3.90;2.00;;;17.30;99.90;;;;;;5005318;28;20204;-77
2021/08/09 07:38:11;;;;;;;2.88;2.00;;;17.30;99.90;;;;;;5006262;28;20200;-78
2021/08/09 07:40:38;;;;;;;3.72;2.33;;;17.50;99.90;;;;;;5007708;28;20217;-77
2021/08/09 07:43:06;;;;;;;3.85;1.92;;;17.60;99.90;;;;;;5008206;28;20287;-78
2021/08/09 07:45:33;;;;;;;2.30;2.00;;;17.70;99.90;;;;;;4995990;28;20208;-78
2021/08/09 07:48:00;;;;;;;4.38;2.17;;;18.00;99.90;;;;;;5010724;28;20204;-78
2021/08/09 07:50:26;;;;;;;2.38;1.92;;;18.20;99.90;;;;;;5009503;28;20211;-78
2021/08/09 07:52:53;;;;;;;4.60;2.00;;;18.00;99.90;;;;;;5008938;28;20206;-77
2021/08/09 07:55:20;;;;;;;3.03;1.88;;;18.10;99.90;;;;;;5010439;28;20210;-78
2021/08/09 07:57:47;;;;;;;6.45;2.70;;;18.30;99.90;;;;;;5011515;28;20639;-78
2021/08/09 08:00:16;;;;;;;4.28;2.40;;;18.10;99.90;;;;;;5011318;28;20208;-78
2021/08/09 08:02:43;;;;;;;2.28;1.83;;;18.30;99.90;;;;;;5011177;28;20659;-78
2021/08/09 08:05:10;;;;;;;5.20;2.17;;;18.20;99.90;;;;;;5009796;28;20239;-78
2021/08/09 08:07:37;;;;;;;4.65;2.25;;;18.20;99.90;;;;;;5011061;28;20211;-78
2021/08/09 08:10:05;;;;;;;5.97;2.05;;;18.40;99.90;;;;;;5011574;28;20200;-78
2021/08/09 08:12:32;;;;;;;3.75;2.38;;;18.50;99.90;;;;;;5010684;28;20204;-78
2021/08/09 08:14:58;;;;;;;5.90;2.25;;;18.60;99.90;;;;;;5010679;28;20212;-77
2021/08/09 08:17:27;;;;;;;2.92;1.90;;;18.30;99.90;;;;;;5011399;28;20192;-78
2021/08/09 08:19:53;;;;;;;5.00;1.88;;;18.60;99.90;;;;;;5000898;28;20308;-78
2021/08/09 08:22:20;;;;;;;2.90;1.95;;;18.60;99.90;;;;;;5019847;28;20661;-77
2021/08/09 08:24:47;;;;;;;3.80;2.00;;;18.60;99.90;;;;;;5025133;28;20208;-77
2021/08/09 08:27:14;;;;;;;3.75;2.00;;;18.40;99.90;;;;;;4999535;28;20304;-78
2021/08/09 08:29:41;;;;;;;4.28;2.40;;;18.70;99.90;;;;;;4986909;28;20722;-77
2021/08/09 08:32:08;;;;;;;5.63;1.77;;;18.70;99.90;;;;;;5006425;28;20213;-77
2021/08/09 08:34:36;;;;;;;3.15;2.15;;;18.90;99.90;;;;;;5006447;28;20307;-78
2021/08/09 08:37:04;;;;;;;2.42;2.00;;;18.90;99.90;;;;;;5006378;28;20215;-77
2021/08/09 08:39:31;;;;;;;4.22;1.58;;;18.80;99.90;;;;;;5006744;28;20205;-77
2021/08/09 08:41:59;;;;;;;2.38;2.00;;;19.10;99.90;;;;;;5006946;28;20489;-77
2021/08/09 08:44:26;;;;;;;3.60;2.00;;;19.40;99.90;;;;;;5008344;28;20636;-77
2021/08/09 08:46:54;;;;;;;4.32;2.10;;;19.50;99.90;;;;;;5009782;28;20209;-77
2021/08/09 08:49:23;;;;;;;2.67;1.73;;;19.70;99.90;;;;;;5010096;28;20636;-78
2021/08/09 08:51:51;;;;;;;4.25;1.95;;;20.00;99.90;;;;;;5005491;28;20205;-78
2021/08/09 08:54:19;;;;;;;4.50;2.00;;;19.80;99.90;;;;;;5009392;28;20204;-78
2021/08/09 08:56:48;;;;;;;5.47;2.20;;;19.40;99.90;;;;;;5008732;28;20595;-78
2021/08/09 08:59:16;;;;;;;4.30;1.80;;;19.50;99.90;;;;;;5007864;28;20236;-77
2021/08/09 09:01:44;;;;;;;4.95;2.33;;;19.40;99.90;;;;;;5010167;28;20235;-77
2021/08/09 09:04:25;;;;;;;2.95;1.80;;;19.20;99.90;;;;;;5008449;28;20211;-78
2021/08/09 09:07:01;;;;;;;5.28;2.20;;;19.30;99.90;;;;;;5009583;28;20247;-78
2021/08/09 09:09:29;;;;;;;2.33;1.90;;;19.30;99.90;;;;;;5002912;28;20207;-77
2021/08/09 09:11:56;;;;;;;5.68;2.53;;;19.40;99.90;;;;;;5010024;28;20216;-77
2021/08/09 09:14:31;;;;;;;3.35;1.98;;;19.50;99.90;;;;;;5008675;28;20214;-77
2021/08/09 09:17:00;;;;;;;4.13;2.38;;;19.50;99.90;;;;;;4999845;28;20205;-76
2021/08/09 09:19:33;;;;;;;5.85;2.10;;;19.30;99.90;;;;;;4990523;28;20215;-76
2021/08/09 09:22:01;;;;;;;4.78;2.08;;;19.50;99.90;;;;;;5006029;28;20324;-76
2021/08/09 09:24:28;;;;;;;2.45;1.95;;;19.30;99.90;;;;;;5009058;28;20220;-76
2021/08/09 09:26:57;;;;;;;4.63;1.80;;;19.40;99.90;;;;;;5009157;28;20220;-76
2021/08/09 09:29:25;;;;;;;4.80;2.08;;;19.40;99.90;;;;;;5009281;28;20208;-77
2021/08/09 09:31:53;;;;;;;4.43;2.20;;;19.30;99.90;;;;;;5009196;28;20211;-76
2021/08/09 09:34:21;;;;;;;4.10;2.35;;;19.20;99.90;;;;;;5009029;28;20208;-76
2021/08/09 09:36:51;;;;;;;2.33;2.13;;;19.30;99.90;;;;;;5009958;28;20741;-76
2021/08/09 09:39:43;;;;;;;3.83;1.95;;;19.30;99.90;;;;;;5009030;28;20208;-76
2021/08/09 09:42:15;;;;;;;2.97;2.08;;;19.30;99.90;;;;;;4994843;28;21080;-76
2021/08/09 09:44:44;;;;;;;3.83;1.70;;;19.40;99.90;;;;;;5008909;28;20213;-77
2021/08/09 09:47:22;;;;;;;3.08;2.28;;;19.40;99.90;;;;;;5009950;28;20215;-76
2021/08/09 09:49:50;;;;;;;4.90;1.85;;;19.40;99.90;;;;;;5009122;28;20208;-76
2021/08/09 09:52:35;;;;;;;3.78;2.50;;;19.50;99.90;;;;;;5009587;28;20209;-76
2021/08/09 09:55:06;;;;;;;2.13;1.70;;;19.40;99.90;;;;;;5007151;28;20211;-76
2021/08/09 09:57:34;;;;;;;2.55;1.88;;;19.60;99.90;;;;;;5008787;28;20232;-76
2021/08/09 10:00:01;;;;;;;3.92;2.22;;;19.30;99.90;;;;;;5009268;28;20204;-76
2021/08/09 10:02:28;;;;;;;3.42;1.70;;;19.30;99.90;;;;;;5008806;28;20817;-77
2021/08/09 10:04:55;;;;;;;3.47;2.28;;;19.50;99.90;;;;;;5007670;28;20835;-77
2021/08/09 10:07:25;;;;;;;2.53;1.95;;;19.50;99.90;;;;;;5005928;28;20220;-76
2021/08/09 10:09:54;;;;;;;3.88;2.00;;;19.40;99.90;;;;;;5009249;28;20208;-76
2021/08/09 10:12:26;;;;;;;3.65;1.95;;;19.60;99.90;;;;;;5007834;28;20538;-76
2021/08/09 10:14:55;;;;;;;3.25;2.15;;;19.50;99.90;;;;;;5008712;28;20223;-76
2021/08/09 10:17:23;;;;;;;3.90;1.75;;;19.50;99.90;;;;;;5015057;28;20218;-76
2021/08/09 10:19:51;;;;;;;4.35;2.40;;;19.60;99.90;;;;;;5014305;28;20208;-76
2021/08/09 10:22:20;;;;;;;4.22;1.83;;;19.70;99.90;;;;;;5010244;28;20224;-76
2021/08/09 10:24:48;;;;;;;3.17;2.17;;;19.90;99.90;;;;;;5007970;28;20602;-76
2021/08/09 10:27:15;;;;;;;3.35;2.00;;;20.00;99.90;;;;;;5007386;28;20219;-76
2021/08/09 10:30:16;;;;;;;2.83;1.40;;;20.10;99.90;;;;;;5008760;28;20204;-77
2021/08/09 10:32:46;;;;;;;3.65;2.22;;;19.90;99.90;;;;;;4998533;28;20227;-76
2021/08/09 10:36:02;;;;;;;1.73;1.63;;;20.20;99.90;;;;;;5007757;28;20673;-76
2021/08/09 10:38:43;;;;;;;4.35;2.05;;;20.40;99.90;;;;;;5007002;28;20200;-76
2021/08/09 10:41:33;;;;;;;3.30;1.90;;;20.80;99.90;;;;;;5007201;28;20200;-75
2021/08/09 10:44:25;;;;;;;3.42;1.83;;;21.10;99.90;;;;;;5006701;28;20548;-76
2021/08/09 10:46:57;;;;;;;4.68;1.80;;;21.20;99.90;;;;;;5012754;28;20684;-76
2021/08/09 10:49:58;;;;;;;4.60;1.60;;;21.20;99.90;;;;;;5007745;28;20200;-76
2021/08/09 10:52:36;;;;;;;2.97;1.75;;;21.40;99.90;;;;;;5008357;28;20207;-76
2021/08/09 10:55:43;;;;;;;3.22;1.65;;;21.60;99.90;;;;;;5006608;28;20217;-76
2021/08/09 10:58:11;;;;;;;3.97;1.73;;;21.50;99.90;;;;;;5010510;28;20853;-76
2021/08/09 11:00:57;;;;;;;2.40;1.70;;;21.50;99.90;;;;;;5008353;28;20392;-76
2021/08/09 11:03:25;;;;;;;4.78;1.65;;;21.40;99.90;;;;;;5013304;28;20589;-76
2021/08/09 11:05:52;;;;;;;2.88;1.50;;;21.70;99.90;;;;;;5008078;28;20841;-76
2021/08/09 11:08:32;;;;;;;4.07;2.70;;;21.60;99.90;;;;;;5007785;28;20219;-75
2021/08/09 11:11:07;;;;;;;2.45;1.77;;;22.00;99.90;;;;;;5007334;28;20212;-76
2021/08/09 11:14:15;;;;;;;2.13;1.63;;;21.80;99.90;;;;;;5008076;28;20207;-76
2021/08/09 11:16:42;;;;;;;4.32;1.90;;;22.10;99.90;;;;;;5007690;28;20300;-76
2021/08/09 11:19:21;;;;;;;2.20;1.70;;;22.20;99.90;;;;;;5008285;28;20205;-76
2021/08/09 11:21:54;;;;;;;2.42;1.88;;;22.00;99.90;;;;;;5009184;28;20222;-77
2021/08/09 11:24:34;;;;;;;2.47;1.33;;;22.30;99.90;;;;;;5008349;28;20200;-76
2021/08/09 11:27:06;;;;;;;3.25;2.25;;;22.20;99.90;;;;;;5008474;28;20220;-76
2021/08/09 11:29:52;;;;;;;3.00;1.42;;;22.30;99.90;;;;;;5007910;28;20208;-76
2021/08/09 11:32:37;;;;;;;2.85;1.40;;;22.40;99.90;;;;;;5008534;28;20204;-76
2021/08/09 11:35:07;;;;;;;3.70;1.40;;;22.30;99.90;;;;;;4996192;28;20579;-76
2021/08/09 11:37:34;;;;;;;1.83;1.63;;;22.10;99.90;;;;;;4999495;28;20204;-77
2021/08/09 11:40:01;;;;;;;2.72;1.60;;;22.20;99.90;;;;;;5006959;28;20234;-76
2021/08/09 11:42:48;;;;;;;3.58;1.80;;;22.40;99.90;;;;;;5002281;28;20315;-77
2021/08/09 11:45:26;;;;;;;3.05;1.92;;;22.30;99.90;;;;;;5004828;28;20240;-76
2021/08/09 11:47:52;;;;;;;4.32;2.78;;;22.20;99.90;;;;;;5001159;28;20203;-76
2021/08/09 11:50:21;;;;;;;2.88;1.70;;;22.10;99.90;;;;;;5008062;28;20208;-76
2021/08/09 11:52:48;;;;;;;4.47;1.45;;;22.40;99.90;;;;;;5007583;28;20206;-76
2021/08/09 11:55:19;;;;;;;2.88;1.50;;;22.60;99.90;;;;;;5007386;28;20298;-76
2021/08/09 11:57:46;;;;;;;1.60;1.20;;;23.00;99.90;;;;;;5007816;28;20211;-76
2021/08/09 12:00:14;;;;;;;2.60;1.50;;;23.10;99.90;;;;;;5007374;28;20208;-76
2021/08/09 12:03:16;;;;;;;4.10;1.55;;;23.40;99.90;;;;;;5005880;28;20266;-77
2021/08/09 12:05:45;;;;;;;3.22;1.42;;;23.20;99.90;;;;;;5003193;28;20258;-77
2021/08/09 12:08:12;;;;;;;2.78;1.45;;;23.70;99.90;;;;;;5007637;28;20204;-77
2021/08/09 12:10:40;;;;;;;3.20;1.58;;;24.00;99.90;;;;;;5001428;28;20209;-76
2021/08/09 12:13:29;;;;;;;2.78;1.60;;;23.40;99.90;;;;;;5008599;28;20211;-77
2021/08/09 12:16:13;;;;;;;2.63;1.42;;;23.10;99.90;;;;;;5007163;28;20240;-76
2021/08/09 12:18:41;;;;;;;2.80;1.52;;;22.80;99.90;;;;;;5010932;28;20208;-77
2021/08/09 12:21:11;;;;;;;3.05;1.52;;;22.80;99.90;;;;;;5013056;28;20205;-76
2021/08/09 12:23:56;;;;;;;1.92;1.35;;;22.50;99.90;;;;;;5012328;28;20612;-77
2021/08/09 12:26:28;;;;;;;2.88;1.40;;;22.20;99.90;;;;;;5026324;22;20203;-74
2021/08/09 12:28:57;;;;;;;4.78;1.42;;;22.10;99.90;;;;;;5011578;28;20632;-74
2021/08/09 12:31:40;;;;;;;1.65;1.20;;;22.20;99.90;;;;;;5010787;28;20200;-74
2021/08/09 12:34:08;;;;;;;3.88;1.40;;;22.10;99.90;;;;;;5009051;28;20284;-74
2021/08/09 12:36:38;;;;;;;1.50;1.40;;;22.10;99.90;;;;;;5008272;28;20299;-74
2021/08/09 12:39:07;;;;;;;2.95;2.17;;;22.20;99.90;;;;;;5009656;28;20210;-74
2021/08/09 12:41:35;;;;;;;2.95;1.58;;;22.10;99.90;;;;;;5008811;28;20216;-74
2021/08/09 12:44:04;;;;;;;2.08;1.88;;;22.00;99.90;;;;;;5008864;28;20220;-74
2021/08/09 12:46:32;;;;;;;1.50;1.30;;;21.60;99.90;;;;;;5010634;28;20254;-74
2021/08/09 12:48:59;;;;;;;3.80;1.60;;;21.40;99.90;;;;;;5023153;28;20291;-74
2021/08/09 12:51:26;;;;;;;1.70;1.48;;;21.30;99.90;;;;;;5008661;28;20208;-74
2021/08/09 12:53:55;;;;;;;3.95;2.05;;;20.10;99.90;;;;;;5007450;28;20206;-74
2021/08/09 12:56:21;;;;;;;5.35;1.75;;;19.60;99.90;;;;;;5010009;28;20208;-74
2021/08/09 12:58:48;;;;;;;2.35;1.50;;;19.50;99.90;;;;;;5010557;28;20219;-74
2021/08/09 13:01:15;;;;;;;3.53;1.65;;;19.50;99.90;;;;;;5003957;28;20211;-75